sensor_id;sensor_type;location;lat;lon;timestamp;P1;durP1;ratioP1;P2;durP2;ratioP2
8889;SDS011;4481;43.406;24.454;2023-05-07T00:00:24;8.77;;;7.27;;
8889;SDS011;4481;43.406;24.454;2023-05-07T00:02:50;13.77;;;7.17;;
8889;SDS011;4481;43.406;24.454;2023-05-07T00:05:17;11.93;;;7.07;;
8889;SDS011;4481;43.406;24.454;2023-05-07T00:07:43;9.93;;;7.00;;
8889;SDS011;4481;43.406;24.454;2023-05-07T00:10:10;7.20;;;6.47;;
8889;SDS011;4481;43.406;24.454;2023-05-07T00:12:37;14.13;;;7.17;;
8889;SDS011;4481;43.406;24.454;2023-05-07T00:15:03;7.97;;;7.20;;
8889;SDS011;4481;43.406;24.454;2023-05-07T00:17:30;8.17;;;6.93;;
8889;SDS011;4481;43.406;24.454;2023-05-07T00:19:58;7.90;;;6.43;;
8889;SDS011;4481;43.406;24.454;2023-05-07T00:22:25;8.23;;;6.17;;
8889;SDS011;4481;43.406;24.454;2023-05-07T00:24:51;7.37;;;6.20;;
8889;SDS011;4481;43.406;24.454;2023-05-07T00:27:17;11.80;;;6.97;;
8889;SDS011;4481;43.406;24.454;2023-05-07T00:29:43;8.40;;;7.13;;
8889;SDS011;4481;43.406;24.454;2023-05-07T00:32:09;13.27;;;7.23;;
8889;SDS011;4481;43.406;24.454;2023-05-07T00:34:35;7.87;;;7.07;;
8889;SDS011;4481;43.406;24.454;2023-05-07T00:37:01;8.30;;;7.50;;
8889;SDS011;4481;43.406;24.454;2023-05-07T00:39:28;7.87;;;6.93;;
8889;SDS011;4481;43.406;24.454;2023-05-07T00:41:54;14.60;;;7.60;;
8889;SDS011;4481;43.406;24.454;2023-05-07T00:44:21;7.77;;;6.97;;
8889;SDS011;4481;43.406;24.454;2023-05-07T00:46:47;8.63;;;7.47;;
8889;SDS011;4481;43.406;24.454;2023-05-07T00:49:15;8.40;;;7.50;;
8889;SDS011;4481;43.406;24.454;2023-05-07T00:51:41;7.57;;;6.67;;
8889;SDS011;4481;43.406;24.454;2023-05-07T00:54:08;8.70;;;6.87;;
8889;SDS011;4481;43.406;24.454;2023-05-07T00:56:35;10.90;;;6.83;;
8889;SDS011;4481;43.406;24.454;2023-05-07T00:59:02;8.47;;;6.27;;
8889;SDS011;4481;43.406;24.454;2023-05-07T01:01:28;7.67;;;6.83;;
8889;SDS011;4481;43.406;24.454;2023-05-07T01:03:54;7.63;;;6.40;;
8889;SDS011;4481;43.406;24.454;2023-05-07T01:06:21;8.27;;;7.33;;
8889;SDS011;4481;43.406;24.454;2023-05-07T01:08:50;9.17;;;7.17;;
8889;SDS011;4481;43.406;24.454;2023-05-07T01:11:18;9.53;;;7.60;;
8889;SDS011;4481;43.406;24.454;2023-05-07T01:13:46;10.13;;;6.67;;
8889;SDS011;4481;43.406;24.454;2023-05-07T01:16:12;9.03;;;6.53;;
8889;SDS011;4481;43.406;24.454;2023-05-07T01:18:39;8.33;;;6.90;;
8889;SDS011;4481;43.406;24.454;2023-05-07T01:21:05;13.90;;;7.20;;
8889;SDS011;4481;43.406;24.454;2023-05-07T01:23:33;8.83;;;6.50;;
8889;SDS011;4481;43.406;24.454;2023-05-07T01:26:00;10.30;;;6.40;;
8889;SDS011;4481;43.406;24.454;2023-05-07T01:28:26;8.23;;;6.40;;
8889;SDS011;4481;43.406;24.454;2023-05-07T01:30:53;7.17;;;6.47;;
8889;SDS011;4481;43.406;24.454;2023-05-07T01:33:21;6.30;;;5.70;;
8889;SDS011;4481;43.406;24.454;2023-05-07T01:35:50;12.17;;;6.50;;
8889;SDS011;4481;43.406;24.454;2023-05-07T01:38:18;9.97;;;6.60;;
8889;SDS011;4481;43.406;24.454;2023-05-07T01:40:47;8.57;;;7.00;;
8889;SDS011;4481;43.406;24.454;2023-05-07T01:43:14;8.57;;;6.33;;
8889;SDS011;4481;43.406;24.454;2023-05-07T01:45:40;7.70;;;6.40;;
8889;SDS011;4481;43.406;24.454;2023-05-07T01:48:07;8.30;;;6.43;;
8889;SDS011;4481;43.406;24.454;2023-05-07T01:50:35;7.13;;;5.97;;
8889;SDS011;4481;43.406;24.454;2023-05-07T01:53:02;8.30;;;5.93;;
8889;SDS011;4481;43.406;24.454;2023-05-07T01:55:28;6.37;;;5.73;;
8889;SDS011;4481;43.406;24.454;2023-05-07T01:57:55;7.10;;;5.87;;
8889;SDS011;4481;43.406;24.454;2023-05-07T02:00:22;7.40;;;6.60;;
8889;SDS011;4481;43.406;24.454;2023-05-07T02:02:48;8.43;;;6.27;;
8889;SDS011;4481;43.406;24.454;2023-05-07T02:05:15;6.33;;;5.73;;
8889;SDS011;4481;43.406;24.454;2023-05-07T02:07:41;6.63;;;5.70;;
8889;SDS011;4481;43.406;24.454;2023-05-07T02:10:07;7.93;;;6.27;;
8889;SDS011;4481;43.406;24.454;2023-05-07T02:12:34;11.27;;;6.50;;
8889;SDS011;4481;43.406;24.454;2023-05-07T02:15:01;7.63;;;6.03;;
8889;SDS011;4481;43.406;24.454;2023-05-07T02:17:27;7.30;;;5.93;;
8889;SDS011;4481;43.406;24.454;2023-05-07T02:19:56;7.70;;;6.33;;
8889;SDS011;4481;43.406;24.454;2023-05-07T02:22:22;9.10;;;6.53;;
8889;SDS011;4481;43.406;24.454;2023-05-07T02:24:49;10.17;;;7.17;;
8889;SDS011;4481;43.406;24.454;2023-05-07T02:27:15;7.97;;;7.20;;
8889;SDS011;4481;43.406;24.454;2023-05-07T02:29:41;11.57;;;6.57;;
8889;SDS011;4481;43.406;24.454;2023-05-07T02:32:08;11.20;;;6.80;;
8889;SDS011;4481;43.406;24.454;2023-05-07T02:34:34;8.63;;;7.13;;
8889;SDS011;4481;43.406;24.454;2023-05-07T02:37:00;7.00;;;6.30;;
8889;SDS011;4481;43.406;24.454;2023-05-07T02:39:26;7.83;;;6.93;;
8889;SDS011;4481;43.406;24.454;2023-05-07T02:41:52;7.47;;;6.70;;
8889;SDS011;4481;43.406;24.454;2023-05-07T02:44:18;8.10;;;6.17;;
8889;SDS011;4481;43.406;24.454;2023-05-07T02:46:44;6.60;;;5.80;;
8889;SDS011;4481;43.406;24.454;2023-05-07T02:49:11;7.27;;;6.27;;
8889;SDS011;4481;43.406;24.454;2023-05-07T02:51:37;8.37;;;6.53;;
8889;SDS011;4481;43.406;24.454;2023-05-07T02:54:03;7.47;;;6.73;;
8889;SDS011;4481;43.406;24.454;2023-05-07T02:56:30;9.23;;;7.27;;
8889;SDS011;4481;43.406;24.454;2023-05-07T02:58:56;7.70;;;6.57;;
8889;SDS011;4481;43.406;24.454;2023-05-07T03:01:22;7.13;;;6.43;;
8889;SDS011;4481;43.406;24.454;2023-05-07T03:03:49;8.87;;;6.97;;
8889;SDS011;4481;43.406;24.454;2023-05-07T03:06:15;10.37;;;6.90;;
8889;SDS011;4481;43.406;24.454;2023-05-07T03:08:41;10.63;;;7.23;;
8889;SDS011;4481;43.406;24.454;2023-05-07T03:11:08;11.60;;;7.27;;
8889;SDS011;4481;43.406;24.454;2023-05-07T03:13:34;10.13;;;8.10;;
8889;SDS011;4481;43.406;24.454;2023-05-07T03:16:00;11.20;;;7.87;;
8889;SDS011;4481;43.406;24.454;2023-05-07T03:18:26;8.17;;;6.90;;
8889;SDS011;4481;43.406;24.454;2023-05-07T03:20:52;9.47;;;7.30;;
8889;SDS011;4481;43.406;24.454;2023-05-07T03:23:19;9.13;;;6.67;;
8889;SDS011;4481;43.406;24.454;2023-05-07T03:25:45;9.57;;;7.77;;
8889;SDS011;4481;43.406;24.454;2023-05-07T03:28:11;8.80;;;7.50;;
8889;SDS011;4481;43.406;24.454;2023-05-07T03:30:37;7.77;;;6.80;;
8889;SDS011;4481;43.406;24.454;2023-05-07T03:33:03;12.40;;;7.43;;
8889;SDS011;4481;43.406;24.454;2023-05-07T03:35:29;10.77;;;6.73;;
8889;SDS011;4481;43.406;24.454;2023-05-07T03:37:55;9.77;;;6.70;;
8889;SDS011;4481;43.406;24.454;2023-05-07T03:40:22;9.53;;;7.40;;
8889;SDS011;4481;43.406;24.454;2023-05-07T03:42:48;8.23;;;6.80;;
8889;SDS011;4481;43.406;24.454;2023-05-07T03:45:15;10.77;;;7.07;;
8889;SDS011;4481;43.406;24.454;2023-05-07T03:47:41;9.17;;;7.07;;
8889;SDS011;4481;43.406;24.454;2023-05-07T03:50:07;13.63;;;6.83;;
8889;SDS011;4481;43.406;24.454;2023-05-07T03:52:35;12.30;;;6.33;;
8889;SDS011;4481;43.406;24.454;2023-05-07T03:55:01;8.93;;;7.13;;
8889;SDS011;4481;43.406;24.454;2023-05-07T03:57:28;10.70;;;6.50;;
8889;SDS011;4481;43.406;24.454;2023-05-07T03:59:54;12.30;;;6.73;;
8889;SDS011;4481;43.406;24.454;2023-05-07T04:02:20;11.80;;;6.60;;
8889;SDS011;4481;43.406;24.454;2023-05-07T04:04:48;12.10;;;6.93;;
8889;SDS011;4481;43.406;24.454;2023-05-07T04:07:14;7.93;;;6.73;;
8889;SDS011;4481;43.406;24.454;2023-05-07T04:09:40;10.17;;;6.70;;
8889;SDS011;4481;43.406;24.454;2023-05-07T04:12:06;7.57;;;6.00;;
8889;SDS011;4481;43.406;24.454;2023-05-07T04:14:33;7.60;;;6.27;;
8889;SDS011;4481;43.406;24.454;2023-05-07T04:16:59;7.63;;;6.83;;
8889;SDS011;4481;43.406;24.454;2023-05-07T04:19:25;10.23;;;7.67;;
8889;SDS011;4481;43.406;24.454;2023-05-07T04:21:51;14.10;;;8.03;;
8889;SDS011;4481;43.406;24.454;2023-05-07T04:24:18;9.07;;;7.47;;
8889;SDS011;4481;43.406;24.454;2023-05-07T04:26:44;11.80;;;9.47;;
8889;SDS011;4481;43.406;24.454;2023-05-07T04:29:10;18.37;;;13.30;;
8889;SDS011;4481;43.406;24.454;2023-05-07T04:31:37;20.73;;;12.80;;
8889;SDS011;4481;43.406;24.454;2023-05-07T04:34:03;16.77;;;10.23;;
8889;SDS011;4481;43.406;24.454;2023-05-07T04:36:30;9.13;;;8.10;;
8889;SDS011;4481;43.406;24.454;2023-05-07T04:38:58;8.07;;;6.93;;
8889;SDS011;4481;43.406;24.454;2023-05-07T04:41:24;11.10;;;6.97;;
8889;SDS011;4481;43.406;24.454;2023-05-07T04:43:50;7.70;;;5.93;;
8889;SDS011;4481;43.406;24.454;2023-05-07T04:46:16;8.47;;;6.03;;
8889;SDS011;4481;43.406;24.454;2023-05-07T04:48:43;7.20;;;5.73;;
8889;SDS011;4481;43.406;24.454;2023-05-07T04:51:09;8.60;;;5.83;;
8889;SDS011;4481;43.406;24.454;2023-05-07T04:53:36;8.60;;;5.40;;
8889;SDS011;4481;43.406;24.454;2023-05-07T04:56:03;10.20;;;6.27;;
8889;SDS011;4481;43.406;24.454;2023-05-07T04:58:29;11.07;;;6.30;;
8889;SDS011;4481;43.406;24.454;2023-05-07T05:00:56;7.10;;;5.83;;
8889;SDS011;4481;43.406;24.454;2023-05-07T05:03:22;8.73;;;5.80;;
8889;SDS011;4481;43.406;24.454;2023-05-07T05:05:50;7.50;;;4.93;;
8889;SDS011;4481;43.406;24.454;2023-05-07T05:08:16;6.90;;;5.10;;
8889;SDS011;4481;43.406;24.454;2023-05-07T05:10:43;5.33;;;4.50;;
8889;SDS011;4481;43.406;24.454;2023-05-07T05:13:09;8.63;;;4.93;;
8889;SDS011;4481;43.406;24.454;2023-05-07T05:15:37;5.70;;;4.97;;
8889;SDS011;4481;43.406;24.454;2023-05-07T05:18:03;5.30;;;4.77;;
8889;SDS011;4481;43.406;24.454;2023-05-07T05:20:30;6.00;;;5.40;;
8889;SDS011;4481;43.406;24.454;2023-05-07T05:22:56;6.23;;;5.60;;
8889;SDS011;4481;43.406;24.454;2023-05-07T05:25:23;7.10;;;5.97;;
8889;SDS011;4481;43.406;24.454;2023-05-07T05:27:49;6.47;;;5.77;;
8889;SDS011;4481;43.406;24.454;2023-05-07T05:30:15;8.03;;;5.40;;
8889;SDS011;4481;43.406;24.454;2023-05-07T05:32:41;6.23;;;5.47;;
8889;SDS011;4481;43.406;24.454;2023-05-07T05:35:07;7.13;;;6.13;;
8889;SDS011;4481;43.406;24.454;2023-05-07T05:37:34;6.43;;;5.50;;
8889;SDS011;4481;43.406;24.454;2023-05-07T05:40:00;7.67;;;4.73;;
8889;SDS011;4481;43.406;24.454;2023-05-07T05:42:27;9.10;;;5.37;;
8889;SDS011;4481;43.406;24.454;2023-05-07T05:44:53;8.20;;;5.27;;
8889;SDS011;4481;43.406;24.454;2023-05-07T05:47:19;7.63;;;5.80;;
8889;SDS011;4481;43.406;24.454;2023-05-07T05:49:45;5.20;;;4.70;;
8889;SDS011;4481;43.406;24.454;2023-05-07T05:52:11;5.83;;;5.23;;
8889;SDS011;4481;43.406;24.454;2023-05-07T05:54:38;6.10;;;5.00;;
8889;SDS011;4481;43.406;24.454;2023-05-07T05:57:05;5.83;;;4.53;;
8889;SDS011;4481;43.406;24.454;2023-05-07T05:59:31;7.20;;;5.40;;
8889;SDS011;4481;43.406;24.454;2023-05-07T06:01:57;6.77;;;5.20;;
8889;SDS011;4481;43.406;24.454;2023-05-07T06:04:23;7.27;;;4.53;;
8889;SDS011;4481;43.406;24.454;2023-05-07T06:06:49;5.83;;;5.23;;
8889;SDS011;4481;43.406;24.454;2023-05-07T06:09:15;5.70;;;5.10;;
8889;SDS011;4481;43.406;24.454;2023-05-07T06:11:42;5.03;;;4.63;;
8889;SDS011;4481;43.406;24.454;2023-05-07T06:14:08;5.73;;;5.10;;
8889;SDS011;4481;43.406;24.454;2023-05-07T06:16:34;5.13;;;4.63;;
8889;SDS011;4481;43.406;24.454;2023-05-07T06:19:03;7.20;;;5.00;;
8889;SDS011;4481;43.406;24.454;2023-05-07T06:21:29;5.90;;;4.50;;
8889;SDS011;4481;43.406;24.454;2023-05-07T06:23:55;5.53;;;4.70;;
8889;SDS011;4481;43.406;24.454;2023-05-07T06:26:21;5.13;;;4.63;;
8889;SDS011;4481;43.406;24.454;2023-05-07T06:28:48;6.07;;;4.60;;
8889;SDS011;4481;43.406;24.454;2023-05-07T06:31:15;5.53;;;4.97;;
8889;SDS011;4481;43.406;24.454;2023-05-07T06:33:42;5.47;;;4.97;;
8889;SDS011;4481;43.406;24.454;2023-05-07T06:36:09;6.70;;;4.30;;
8889;SDS011;4481;43.406;24.454;2023-05-07T06:38:35;6.07;;;4.70;;
8889;SDS011;4481;43.406;24.454;2023-05-07T06:41:02;5.60;;;4.10;;
8889;SDS011;4481;43.406;24.454;2023-05-07T06:43:28;5.37;;;4.57;;
8889;SDS011;4481;43.406;24.454;2023-05-07T06:45:54;4.73;;;3.97;;
8889;SDS011;4481;43.406;24.454;2023-05-07T06:48:21;5.30;;;4.80;;
8889;SDS011;4481;43.406;24.454;2023-05-07T06:50:47;6.03;;;4.57;;
8889;SDS011;4481;43.406;24.454;2023-05-07T06:53:13;7.70;;;4.30;;
8889;SDS011;4481;43.406;24.454;2023-05-07T06:55:39;5.23;;;4.73;;
8889;SDS011;4481;43.406;24.454;2023-05-07T06:58:06;4.90;;;3.63;;
8889;SDS011;4481;43.406;24.454;2023-05-07T07:00:32;4.23;;;3.83;;
8889;SDS011;4481;43.406;24.454;2023-05-07T07:02:59;5.83;;;4.30;;
8889;SDS011;4481;43.406;24.454;2023-05-07T07:05:26;4.53;;;4.13;;
8889;SDS011;4481;43.406;24.454;2023-05-07T07:07:52;7.53;;;3.70;;
8889;SDS011;4481;43.406;24.454;2023-05-07T07:10:18;6.17;;;3.63;;
8889;SDS011;4481;43.406;24.454;2023-05-07T07:12:45;4.70;;;3.50;;
8889;SDS011;4481;43.406;24.454;2023-05-07T07:15:11;7.07;;;3.30;;
8889;SDS011;4481;43.406;24.454;2023-05-07T07:17:37;4.40;;;3.83;;
8889;SDS011;4481;43.406;24.454;2023-05-07T07:20:03;3.67;;;3.37;;
8889;SDS011;4481;43.406;24.454;2023-05-07T07:22:31;3.63;;;2.90;;
8889;SDS011;4481;43.406;24.454;2023-05-07T07:24:57;4.47;;;3.83;;
8889;SDS011;4481;43.406;24.454;2023-05-07T07:27:24;4.17;;;3.77;;
8889;SDS011;4481;43.406;24.454;2023-05-07T07:29:50;3.87;;;3.47;;
8889;SDS011;4481;43.406;24.454;2023-05-07T07:32:16;3.17;;;2.87;;
8889;SDS011;4481;43.406;24.454;2023-05-07T07:34:42;3.63;;;3.00;;
8889;SDS011;4481;43.406;24.454;2023-05-07T07:37:08;5.47;;;3.30;;
8889;SDS011;4481;43.406;24.454;2023-05-07T07:39:35;7.03;;;3.60;;
8889;SDS011;4481;43.406;24.454;2023-05-07T07:42:02;3.83;;;2.97;;
8889;SDS011;4481;43.406;24.454;2023-05-07T07:44:29;5.77;;;3.03;;
8889;SDS011;4481;43.406;24.454;2023-05-07T07:46:55;4.13;;;3.00;;
8889;SDS011;4481;43.406;24.454;2023-05-07T07:49:21;3.63;;;2.80;;
8889;SDS011;4481;43.406;24.454;2023-05-07T07:51:47;2.80;;;2.50;;
8889;SDS011;4481;43.406;24.454;2023-05-07T07:54:13;2.90;;;2.60;;
8889;SDS011;4481;43.406;24.454;2023-05-07T07:56:40;4.07;;;2.80;;
8889;SDS011;4481;43.406;24.454;2023-05-07T07:59:06;2.57;;;2.23;;
8889;SDS011;4481;43.406;24.454;2023-05-07T08:01:33;3.47;;;1.97;;
8889;SDS011;4481;43.406;24.454;2023-05-07T08:03:59;4.43;;;2.47;;
8889;SDS011;4481;43.406;24.454;2023-05-07T08:06:25;2.70;;;2.23;;
8889;SDS011;4481;43.406;24.454;2023-05-07T08:08:51;2.30;;;2.10;;
8889;SDS011;4481;43.406;24.454;2023-05-07T08:11:18;4.53;;;2.20;;
8889;SDS011;4481;43.406;24.454;2023-05-07T08:13:45;3.73;;;2.10;;
8889;SDS011;4481;43.406;24.454;2023-05-07T08:16:11;3.37;;;2.60;;
8889;SDS011;4481;43.406;24.454;2023-05-07T08:18:37;6.50;;;2.20;;
8889;SDS011;4481;43.406;24.454;2023-05-07T08:21:04;3.00;;;2.67;;
8889;SDS011;4481;43.406;24.454;2023-05-07T08:23:30;3.37;;;2.47;;
8889;SDS011;4481;43.406;24.454;2023-05-07T08:25:56;4.97;;;2.80;;
8889;SDS011;4481;43.406;24.454;2023-05-07T08:28:23;2.80;;;2.50;;
8889;SDS011;4481;43.406;24.454;2023-05-07T08:30:50;3.70;;;2.37;;
8889;SDS011;4481;43.406;24.454;2023-05-07T08:33:16;2.37;;;2.17;;
8889;SDS011;4481;43.406;24.454;2023-05-07T08:35:42;3.63;;;2.67;;
8889;SDS011;4481;43.406;24.454;2023-05-07T08:38:09;3.10;;;2.43;;
8889;SDS011;4481;43.406;24.454;2023-05-07T08:40:36;2.33;;;1.83;;
8889;SDS011;4481;43.406;24.454;2023-05-07T08:43:04;2.17;;;2.00;;
8889;SDS011;4481;43.406;24.454;2023-05-07T08:45:32;3.33;;;2.60;;
8889;SDS011;4481;43.406;24.454;2023-05-07T08:48:01;7.00;;;2.00;;
8889;SDS011;4481;43.406;24.454;2023-05-07T08:50:28;4.03;;;2.13;;
8889;SDS011;4481;43.406;24.454;2023-05-07T08:52:55;3.07;;;1.90;;
8889;SDS011;4481;43.406;24.454;2023-05-07T08:55:22;4.13;;;2.30;;
8889;SDS011;4481;43.406;24.454;2023-05-07T08:57:48;2.57;;;2.17;;
8889;SDS011;4481;43.406;24.454;2023-05-07T09:00:15;2.27;;;2.00;;
8889;SDS011;4481;43.406;24.454;2023-05-07T09:02:42;7.33;;;2.30;;
8889;SDS011;4481;43.406;24.454;2023-05-07T09:05:09;3.13;;;2.20;;
8889;SDS011;4481;43.406;24.454;2023-05-07T09:07:35;2.50;;;2.30;;
8889;SDS011;4481;43.406;24.454;2023-05-07T09:10:02;3.93;;;2.03;;
8889;SDS011;4481;43.406;24.454;2023-05-07T09:12:28;3.53;;;2.30;;
8889;SDS011;4481;43.406;24.454;2023-05-07T09:14:54;3.00;;;2.20;;
8889;SDS011;4481;43.406;24.454;2023-05-07T09:17:21;2.47;;;2.27;;
8889;SDS011;4481;43.406;24.454;2023-05-07T09:19:47;2.47;;;2.10;;
8889;SDS011;4481;43.406;24.454;2023-05-07T09:22:14;2.30;;;2.10;;
8889;SDS011;4481;43.406;24.454;2023-05-07T09:24:40;3.10;;;2.30;;
8889;SDS011;4481;43.406;24.454;2023-05-07T09:27:06;2.40;;;2.20;;
8889;SDS011;4481;43.406;24.454;2023-05-07T09:29:35;2.23;;;2.03;;
8889;SDS011;4481;43.406;24.454;2023-05-07T09:32:01;4.50;;;2.13;;
8889;SDS011;4481;43.406;24.454;2023-05-07T09:34:28;3.70;;;2.17;;
8889;SDS011;4481;43.406;24.454;2023-05-07T09:36:54;4.80;;;2.20;;
8889;SDS011;4481;43.406;24.454;2023-05-07T09:39:22;8.00;;;2.37;;
8889;SDS011;4481;43.406;24.454;2023-05-07T09:41:48;3.93;;;2.17;;
8889;SDS011;4481;43.406;24.454;2023-05-07T09:44:16;2.10;;;1.90;;
8889;SDS011;4481;43.406;24.454;2023-05-07T09:46:43;3.33;;;2.30;;
8889;SDS011;4481;43.406;24.454;2023-05-07T09:49:11;2.30;;;2.10;;
8889;SDS011;4481;43.406;24.454;2023-05-07T09:51:43;2.57;;;2.20;;
8889;SDS011;4481;43.406;24.454;2023-05-07T09:54:13;2.80;;;2.20;;
8889;SDS011;4481;43.406;24.454;2023-05-07T09:56:40;4.03;;;1.87;;
8889;SDS011;4481;43.406;24.454;2023-05-07T09:59:07;2.90;;;2.13;;
8889;SDS011;4481;43.406;24.454;2023-05-07T10:01:35;5.67;;;2.40;;
8889;SDS011;4481;43.406;24.454;2023-05-07T10:04:02;2.30;;;2.00;;
8889;SDS011;4481;43.406;24.454;2023-05-07T10:06:29;2.40;;;2.20;;
8889;SDS011;4481;43.406;24.454;2023-05-07T10:08:56;2.13;;;1.90;;
8889;SDS011;4481;43.406;24.454;2023-05-07T10:11:22;2.30;;;2.10;;
8889;SDS011;4481;43.406;24.454;2023-05-07T10:13:49;3.53;;;2.63;;
8889;SDS011;4481;43.406;24.454;2023-05-07T10:16:18;5.00;;;2.40;;
8889;SDS011;4481;43.406;24.454;2023-05-07T10:18:44;2.40;;;2.20;;
8889;SDS011;4481;43.406;24.454;2023-05-07T10:21:13;2.50;;;2.30;;
8889;SDS011;4481;43.406;24.454;2023-05-07T10:23:42;3.63;;;1.97;;
8889;SDS011;4481;43.406;24.454;2023-05-07T10:26:11;3.40;;;2.13;;
8889;SDS011;4481;43.406;24.454;2023-05-07T10:28:41;4.53;;;2.43;;
8889;SDS011;4481;43.406;24.454;2023-05-07T10:31:32;4.37;;;2.10;;
8889;SDS011;4481;43.406;24.454;2023-05-07T10:34:08;3.90;;;2.40;;
8889;SDS011;4481;43.406;24.454;2023-05-07T10:36:36;3.93;;;2.43;;
8889;SDS011;4481;43.406;24.454;2023-05-07T10:39:04;2.40;;;2.20;;
8889;SDS011;4481;43.406;24.454;2023-05-07T10:41:31;3.47;;;2.20;;
8889;SDS011;4481;43.406;24.454;2023-05-07T10:43:57;3.03;;;2.30;;
8889;SDS011;4481;43.406;24.454;2023-05-07T10:46:27;2.37;;;2.17;;
8889;SDS011;4481;43.406;24.454;2023-05-07T10:49:08;2.27;;;2.03;;
8889;SDS011;4481;43.406;24.454;2023-05-07T10:51:36;4.20;;;2.20;;
8889;SDS011;4481;43.406;24.454;2023-05-07T10:54:18;3.87;;;2.10;;
8889;SDS011;4481;43.406;24.454;2023-05-07T10:56:45;6.10;;;2.67;;
8889;SDS011;4481;43.406;24.454;2023-05-07T11:02:09;2.03;;;1.90;;
8889;SDS011;4481;43.406;24.454;2023-05-07T11:04:36;2.40;;;2.10;;
8889;SDS011;4481;43.406;24.454;2023-05-07T11:09:58;2.57;;;2.20;;
8889;SDS011;4481;43.406;24.454;2023-05-07T11:12:49;2.97;;;2.23;;
8889;SDS011;4481;43.406;24.454;2023-05-07T11:18:09;2.10;;;1.90;;
8889;SDS011;4481;43.406;24.454;2023-05-07T11:20:52;2.53;;;2.20;;
8889;SDS011;4481;43.406;24.454;2023-05-07T11:26:22;2.90;;;2.30;;
8889;SDS011;4481;43.406;24.454;2023-05-07T11:28:48;2.63;;;2.40;;
8889;SDS011;4481;43.406;24.454;2023-05-07T11:31:15;2.37;;;2.00;;
8889;SDS011;4481;43.406;24.454;2023-05-07T11:33:48;3.20;;;2.10;;
8889;SDS011;4481;43.406;24.454;2023-05-07T11:36:15;5.67;;;2.17;;
8889;SDS011;4481;43.406;24.454;2023-05-07T11:38:41;3.07;;;2.30;;
8889;SDS011;4481;43.406;24.454;2023-05-07T11:41:07;3.13;;;2.00;;
8889;SDS011;4481;43.406;24.454;2023-05-07T11:43:34;5.57;;;2.20;;
8889;SDS011;4481;43.406;24.454;2023-05-07T11:46:08;2.77;;;2.20;;
8889;SDS011;4481;43.406;24.454;2023-05-07T11:48:34;2.80;;;2.37;;
8889;SDS011;4481;43.406;24.454;2023-05-07T11:51:02;2.60;;;2.40;;
8889;SDS011;4481;43.406;24.454;2023-05-07T11:53:35;2.50;;;2.30;;
8889;SDS011;4481;43.406;24.454;2023-05-07T11:56:05;3.13;;;2.10;;
8889;SDS011;4481;43.406;24.454;2023-05-07T11:58:32;3.00;;;2.27;;
8889;SDS011;4481;43.406;24.454;2023-05-07T12:00:58;3.57;;;2.27;;
8889;SDS011;4481;43.406;24.454;2023-05-07T12:03:24;3.30;;;2.20;;
8889;SDS011;4481;43.406;24.454;2023-05-07T12:05:51;2.57;;;2.10;;
8889;SDS011;4481;43.406;24.454;2023-05-07T12:08:18;3.07;;;2.00;;
8889;SDS011;4481;43.406;24.454;2023-05-07T12:10:46;2.60;;;2.03;;
8889;SDS011;4481;43.406;24.454;2023-05-07T12:13:16;4.07;;;2.43;;
8889;SDS011;4481;43.406;24.454;2023-05-07T12:15:42;5.70;;;2.50;;
8889;SDS011;4481;43.406;24.454;2023-05-07T12:18:09;3.37;;;2.50;;
8889;SDS011;4481;43.406;24.454;2023-05-07T12:20:36;3.53;;;2.20;;
8889;SDS011;4481;43.406;24.454;2023-05-07T12:23:03;2.50;;;2.30;;
8889;SDS011;4481;43.406;24.454;2023-05-07T12:25:30;5.33;;;2.33;;
8889;SDS011;4481;43.406;24.454;2023-05-07T12:27:57;2.73;;;2.40;;
8889;SDS011;4481;43.406;24.454;2023-05-07T12:30:23;4.33;;;2.30;;
8889;SDS011;4481;43.406;24.454;2023-05-07T12:32:52;4.27;;;2.30;;
8889;SDS011;4481;43.406;24.454;2023-05-07T12:35:25;3.90;;;2.30;;
8889;SDS011;4481;43.406;24.454;2023-05-07T12:37:54;3.13;;;2.47;;
8889;SDS011;4481;43.406;24.454;2023-05-07T12:40:20;2.53;;;2.33;;
8889;SDS011;4481;43.406;24.454;2023-05-07T12:42:47;2.53;;;2.27;;
8889;SDS011;4481;43.406;24.454;2023-05-07T12:45:19;3.10;;;2.37;;
8889;SDS011;4481;43.406;24.454;2023-05-07T12:47:45;3.53;;;2.20;;
8889;SDS011;4481;43.406;24.454;2023-05-07T12:50:12;2.63;;;2.40;;
8889;SDS011;4481;43.406;24.454;2023-05-07T12:52:39;2.70;;;2.10;;
8889;SDS011;4481;43.406;24.454;2023-05-07T12:55:06;2.30;;;2.10;;
8889;SDS011;4481;43.406;24.454;2023-05-07T12:57:37;2.67;;;2.47;;
8889;SDS011;4481;43.406;24.454;2023-05-07T13:00:05;3.33;;;2.40;;
8889;SDS011;4481;43.406;24.454;2023-05-07T13:02:32;4.07;;;2.53;;
8889;SDS011;4481;43.406;24.454;2023-05-07T13:04:59;3.17;;;2.43;;
8889;SDS011;4481;43.406;24.454;2023-05-07T13:07:25;3.77;;;2.77;;
8889;SDS011;4481;43.406;24.454;2023-05-07T13:09:51;3.00;;;2.07;;
8889;SDS011;4481;43.406;24.454;2023-05-07T13:12:17;3.33;;;2.33;;
8889;SDS011;4481;43.406;24.454;2023-05-07T13:14:44;2.37;;;2.10;;
8889;SDS011;4481;43.406;24.454;2023-05-07T13:17:10;4.10;;;2.73;;
8889;SDS011;4481;43.406;24.454;2023-05-07T13:19:36;4.43;;;2.57;;
8889;SDS011;4481;43.406;24.454;2023-05-07T13:22:03;3.00;;;2.40;;
8889;SDS011;4481;43.406;24.454;2023-05-07T13:24:29;3.00;;;2.40;;
8889;SDS011;4481;43.406;24.454;2023-05-07T13:26:55;3.50;;;2.90;;
8889;SDS011;4481;43.406;24.454;2023-05-07T13:29:21;3.20;;;2.50;;
8889;SDS011;4481;43.406;24.454;2023-05-07T13:31:50;2.57;;;2.10;;
8889;SDS011;4481;43.406;24.454;2023-05-07T13:34:18;2.50;;;2.30;;
8889;SDS011;4481;43.406;24.454;2023-05-07T13:36:44;3.47;;;2.40;;
8889;SDS011;4481;43.406;24.454;2023-05-07T13:39:10;2.70;;;2.50;;
8889;SDS011;4481;43.406;24.454;2023-05-07T13:41:36;3.47;;;2.63;;
8889;SDS011;4481;43.406;24.454;2023-05-07T13:44:02;2.30;;;2.10;;
8889;SDS011;4481;43.406;24.454;2023-05-07T13:46:29;3.43;;;2.70;;
8889;SDS011;4481;43.406;24.454;2023-05-07T13:48:55;4.33;;;2.70;;
8889;SDS011;4481;43.406;24.454;2023-05-07T13:51:22;5.10;;;2.73;;
8889;SDS011;4481;43.406;24.454;2023-05-07T13:53:48;2.47;;;2.27;;
8889;SDS011;4481;43.406;24.454;2023-05-07T13:56:15;8.13;;;2.40;;
8889;SDS011;4481;43.406;24.454;2023-05-07T13:58:41;2.70;;;2.50;;
8889;SDS011;4481;43.406;24.454;2023-05-07T14:01:07;4.07;;;2.80;;
8889;SDS011;4481;43.406;24.454;2023-05-07T14:03:33;3.07;;;2.37;;
8889;SDS011;4481;43.406;24.454;2023-05-07T14:06:02;2.97;;;2.33;;
8889;SDS011;4481;43.406;24.454;2023-05-07T14:08:29;3.93;;;2.33;;
8889;SDS011;4481;43.406;24.454;2023-05-07T14:10:55;3.97;;;2.30;;
8889;SDS011;4481;43.406;24.454;2023-05-07T14:13:21;5.23;;;2.50;;
8889;SDS011;4481;43.406;24.454;2023-05-07T14:15:48;3.57;;;2.30;;
8889;SDS011;4481;43.406;24.454;2023-05-07T14:18:14;2.60;;;2.40;;
8889;SDS011;4481;43.406;24.454;2023-05-07T14:20:40;5.50;;;2.50;;
8889;SDS011;4481;43.406;24.454;2023-05-07T14:23:08;2.60;;;2.40;;
8889;SDS011;4481;43.406;24.454;2023-05-07T14:25:35;2.60;;;2.37;;
8889;SDS011;4481;43.406;24.454;2023-05-07T14:28:01;3.00;;;2.80;;
8889;SDS011;4481;43.406;24.454;2023-05-07T14:30:27;3.07;;;2.53;;
8889;SDS011;4481;43.406;24.454;2023-05-07T14:32:53;2.70;;;2.50;;
8889;SDS011;4481;43.406;24.454;2023-05-07T14:35:19;2.57;;;2.30;;
8889;SDS011;4481;43.406;24.454;2023-05-07T14:37:45;4.00;;;2.20;;
8889;SDS011;4481;43.406;24.454;2023-05-07T14:40:12;2.57;;;2.37;;
8889;SDS011;4481;43.406;24.454;2023-05-07T14:42:40;2.50;;;2.27;;
8889;SDS011;4481;43.406;24.454;2023-05-07T14:45:07;4.40;;;2.37;;
8889;SDS011;4481;43.406;24.454;2023-05-07T14:47:34;2.60;;;2.40;;
8889;SDS011;4481;43.406;24.454;2023-05-07T14:50:00;3.50;;;2.23;;
8889;SDS011;4481;43.406;24.454;2023-05-07T14:52:26;2.70;;;2.50;;
8889;SDS011;4481;43.406;24.454;2023-05-07T14:54:52;3.07;;;2.30;;
8889;SDS011;4481;43.406;24.454;2023-05-07T14:57:18;2.90;;;2.30;;
8889;SDS011;4481;43.406;24.454;2023-05-07T14:59:45;3.13;;;2.60;;
8889;SDS011;4481;43.406;24.454;2023-05-07T15:02:12;3.00;;;2.43;;
8889;SDS011;4481;43.406;24.454;2023-05-07T15:04:38;5.67;;;2.60;;
8889;SDS011;4481;43.406;24.454;2023-05-07T15:07:10;5.70;;;2.33;;
8889;SDS011;4481;43.406;24.454;2023-05-07T15:09:36;2.87;;;2.40;;